sensor_id;sensor_type;location;lat;lon;timestamp;P1;durP1;ratioP1;P2;durP2;ratioP2
5967;SDS011;3010;51.028;4.170;2023-07-31T00:02:05;13.63;;;6.83;;
5967;SDS011;3010;51.028;4.170;2023-07-31T00:04:32;13.63;;;5.90;;
5967;SDS011;3010;51.028;4.170;2023-07-31T00:06:58;16.10;;;6.40;;
5967;SDS011;3010;51.028;4.170;2023-07-31T00:09:25;14.57;;;6.63;;
5967;SDS011;3010;51.028;4.170;2023-07-31T00:11:51;14.53;;;6.63;;
5967;SDS011;3010;51.028;4.170;2023-07-31T00:14:18;12.97;;;6.53;;
5967;SDS011;3010;51.028;4.170;2023-07-31T00:16:45;13.40;;;6.30;;
5967;SDS011;3010;51.028;4.170;2023-07-31T00:19:11;16.23;;;6.47;;
5967;SDS011;3010;51.028;4.170;2023-07-31T00:21:38;13.07;;;6.43;;
5967;SDS011;3010;51.028;4.170;2023-07-31T00:24:04;14.67;;;6.80;;
5967;SDS011;3010;51.028;4.170;2023-07-31T00:26:31;16.13;;;6.53;;
5967;SDS011;3010;51.028;4.170;2023-07-31T00:28:58;19.17;;;6.60;;
5967;SDS011;3010;51.028;4.170;2023-07-31T00:31:24;13.17;;;5.67;;
5967;SDS011;3010;51.028;4.170;2023-07-31T00:33:51;16.60;;;5.67;;
5967;SDS011;3010;51.028;4.170;2023-07-31T00:36:17;14.53;;;6.37;;
5967;SDS011;3010;51.028;4.170;2023-07-31T00:38:44;17.40;;;6.03;;
5967;SDS011;3010;51.028;4.170;2023-07-31T00:41:11;21.30;;;6.83;;
5967;SDS011;3010;51.028;4.170;2023-07-31T00:43:37;17.03;;;6.50;;
5967;SDS011;3010;51.028;4.170;2023-07-31T00:46:04;15.87;;;6.80;;
5967;SDS011;3010;51.028;4.170;2023-07-31T00:48:30;20.17;;;6.07;;
5967;SDS011;3010;51.028;4.170;2023-07-31T00:50:57;14.47;;;6.47;;
5967;SDS011;3010;51.028;4.170;2023-07-31T00:53:24;15.47;;;7.57;;
5967;SDS011;3010;51.028;4.170;2023-07-31T00:55:50;18.00;;;6.77;;
5967;SDS011;3010;51.028;4.170;2023-07-31T00:58:17;21.63;;;7.47;;
5967;SDS011;3010;51.028;4.170;2023-07-31T01:00:43;12.93;;;6.57;;
5967;SDS011;3010;51.028;4.170;2023-07-31T01:03:10;8.60;;;5.60;;
5967;SDS011;3010;51.028;4.170;2023-07-31T01:06:00;13.63;;;6.30;;
5967;SDS011;3010;51.028;4.170;2023-07-31T01:08:15;13.90;;;5.47;;
5967;SDS011;3010;51.028;4.170;2023-07-31T01:10:46;16.80;;;6.97;;
5967;SDS011;3010;51.028;4.170;2023-07-31T01:13:05;16.43;;;6.30;;
5967;SDS011;3010;51.028;4.170;2023-07-31T01:15:32;12.37;;;5.97;;
5967;SDS011;3010;51.028;4.170;2023-07-31T01:17:58;15.30;;;6.53;;
5967;SDS011;3010;51.028;4.170;2023-07-31T01:20:26;14.53;;;6.67;;
5967;SDS011;3010;51.028;4.170;2023-07-31T01:26:03;16.30;;;5.63;;
5967;SDS011;3010;51.028;4.170;2023-07-31T01:28:35;17.93;;;6.80;;
5967;SDS011;3010;51.028;4.170;2023-07-31T01:31:01;18.20;;;6.03;;
5967;SDS011;3010;51.028;4.170;2023-07-31T01:33:28;13.83;;;5.97;;
5967;SDS011;3010;51.028;4.170;2023-07-31T01:35:55;14.07;;;5.13;;
5967;SDS011;3010;51.028;4.170;2023-07-31T01:38:21;17.57;;;6.20;;
5967;SDS011;3010;51.028;4.170;2023-07-31T01:40:51;12.13;;;5.50;;
5967;SDS011;3010;51.028;4.170;2023-07-31T01:43:14;14.90;;;5.93;;
5967;SDS011;3010;51.028;4.170;2023-07-31T01:45:41;17.27;;;5.43;;
5967;SDS011;3010;51.028;4.170;2023-07-31T01:48:07;14.03;;;5.27;;
5967;SDS011;3010;51.028;4.170;2023-07-31T01:50:34;15.93;;;5.27;;
5967;SDS011;3010;51.028;4.170;2023-07-31T01:53:01;15.27;;;5.87;;
5967;SDS011;3010;51.028;4.170;2023-07-31T01:55:27;14.63;;;5.80;;
5967;SDS011;3010;51.028;4.170;2023-07-31T01:57:54;10.57;;;5.77;;
5967;SDS011;3010;51.028;4.170;2023-07-31T02:00:20;14.40;;;6.07;;
5967;SDS011;3010;51.028;4.170;2023-07-31T02:02:47;10.43;;;6.07;;
5967;SDS011;3010;51.028;4.170;2023-07-31T02:05:14;16.70;;;6.07;;
5967;SDS011;3010;51.028;4.170;2023-07-31T02:07:40;14.07;;;6.37;;
5967;SDS011;3010;51.028;4.170;2023-07-31T02:10:07;15.77;;;5.83;;
5967;SDS011;3010;51.028;4.170;2023-07-31T02:12:33;13.53;;;5.43;;
5967;SDS011;3010;51.028;4.170;2023-07-31T02:15:00;13.83;;;6.70;;
5967;SDS011;3010;51.028;4.170;2023-07-31T02:17:27;16.43;;;6.17;;
5967;SDS011;3010;51.028;4.170;2023-07-31T02:19:53;13.53;;;5.80;;
5967;SDS011;3010;51.028;4.170;2023-07-31T02:22:20;17.63;;;6.70;;
5967;SDS011;3010;51.028;4.170;2023-07-31T02:24:46;14.23;;;5.60;;
5967;SDS011;3010;51.028;4.170;2023-07-31T02:27:13;14.27;;;5.20;;
5967;SDS011;3010;51.028;4.170;2023-07-31T02:29:40;15.00;;;5.77;;
5967;SDS011;3010;51.028;4.170;2023-07-31T02:32:06;13.53;;;5.67;;
5967;SDS011;3010;51.028;4.170;2023-07-31T02:34:33;15.33;;;6.70;;
5967;SDS011;3010;51.028;4.170;2023-07-31T02:36:59;10.27;;;5.53;;
5967;SDS011;3010;51.028;4.170;2023-07-31T02:39:26;15.43;;;6.13;;
5967;SDS011;3010;51.028;4.170;2023-07-31T02:41:53;12.67;;;5.37;;
5967;SDS011;3010;51.028;4.170;2023-07-31T02:44:19;14.57;;;5.57;;
5967;SDS011;3010;51.028;4.170;2023-07-31T02:46:46;17.20;;;5.87;;
5967;SDS011;3010;51.028;4.170;2023-07-31T02:49:12;14.07;;;5.67;;
5967;SDS011;3010;51.028;4.170;2023-07-31T02:51:39;15.27;;;5.37;;
5967;SDS011;3010;51.028;4.170;2023-07-31T02:54:06;10.93;;;5.90;;
5967;SDS011;3010;51.028;4.170;2023-07-31T02:56:32;11.80;;;6.00;;
5967;SDS011;3010;51.028;4.170;2023-07-31T02:58:59;17.50;;;5.73;;
5967;SDS011;3010;51.028;4.170;2023-07-31T03:01:25;14.03;;;6.37;;
5967;SDS011;3010;51.028;4.170;2023-07-31T03:03:52;17.40;;;6.87;;
5967;SDS011;3010;51.028;4.170;2023-07-31T03:06:18;11.20;;;5.77;;
5967;SDS011;3010;51.028;4.170;2023-07-31T03:08:45;13.77;;;5.63;;
5967;SDS011;3010;51.028;4.170;2023-07-31T03:11:12;10.83;;;5.83;;
5967;SDS011;3010;51.028;4.170;2023-07-31T03:13:38;15.97;;;7.20;;
5967;SDS011;3010;51.028;4.170;2023-07-31T03:16:05;15.60;;;6.60;;
5967;SDS011;3010;51.028;4.170;2023-07-31T03:18:31;15.30;;;6.93;;
5967;SDS011;3010;51.028;4.170;2023-07-31T03:20:58;15.10;;;6.63;;
5967;SDS011;3010;51.028;4.170;2023-07-31T03:23:25;18.03;;;6.43;;
5967;SDS011;3010;51.028;4.170;2023-07-31T03:25:55;15.70;;;6.63;;
5967;SDS011;3010;51.028;4.170;2023-07-31T03:28:24;14.73;;;6.87;;
5967;SDS011;3010;51.028;4.170;2023-07-31T03:30:51;13.43;;;7.12;;
5967;SDS011;3010;51.028;4.170;2023-07-31T03:33:17;14.93;;;6.57;;
5967;SDS011;3010;51.028;4.170;2023-07-31T03:35:44;11.50;;;6.00;;
5967;SDS011;3010;51.028;4.170;2023-07-31T03:38:10;8.80;;;5.80;;
5967;SDS011;3010;51.028;4.170;2023-07-31T03:40:37;15.63;;;7.03;;
5967;SDS011;3010;51.028;4.170;2023-07-31T03:43:03;11.30;;;6.60;;
5967;SDS011;3010;51.028;4.170;2023-07-31T03:45:30;13.68;;;7.10;;
5967;SDS011;3010;51.028;4.170;2023-07-31T03:47:56;14.73;;;7.57;;
5967;SDS011;3010;51.028;4.170;2023-07-31T03:50:23;12.60;;;7.20;;
5967;SDS011;3010;51.028;4.170;2023-07-31T03:52:50;10.53;;;6.87;;
5967;SDS011;3010;51.028;4.170;2023-07-31T03:55:16;12.90;;;6.53;;
5967;SDS011;3010;51.028;4.170;2023-07-31T03:57:43;12.83;;;6.03;;
5967;SDS011;3010;51.028;4.170;2023-07-31T04:00:10;11.37;;;6.63;;
5967;SDS011;3010;51.028;4.170;2023-07-31T04:02:36;16.03;;;6.90;;
5967;SDS011;3010;51.028;4.170;2023-07-31T04:05:03;9.43;;;6.30;;
5967;SDS011;3010;51.028;4.170;2023-07-31T04:07:29;13.50;;;6.73;;
5967;SDS011;3010;51.028;4.170;2023-07-31T04:09:56;13.03;;;6.90;;
5967;SDS011;3010;51.028;4.170;2023-07-31T04:12:23;14.37;;;7.73;;
5967;SDS011;3010;51.028;4.170;2023-07-31T04:14:49;12.67;;;7.80;;
5967;SDS011;3010;51.028;4.170;2023-07-31T04:17:17;12.60;;;7.40;;
5967;SDS011;3010;51.028;4.170;2023-07-31T04:19:42;14.63;;;7.53;;
5967;SDS011;3010;51.028;4.170;2023-07-31T04:22:09;13.93;;;7.03;;
5967;SDS011;3010;51.028;4.170;2023-07-31T04:24:36;12.70;;;6.77;;
5967;SDS011;3010;51.028;4.170;2023-07-31T04:27:02;10.33;;;6.83;;
5967;SDS011;3010;51.028;4.170;2023-07-31T04:29:29;11.13;;;6.80;;
5967;SDS011;3010;51.028;4.170;2023-07-31T04:31:56;9.47;;;6.80;;
5967;SDS011;3010;51.028;4.170;2023-07-31T04:34:22;14.17;;;6.87;;
5967;SDS011;3010;51.028;4.170;2023-07-31T04:36:49;11.20;;;6.67;;
5967;SDS011;3010;51.028;4.170;2023-07-31T04:39:15;12.97;;;7.30;;
5967;SDS011;3010;51.028;4.170;2023-07-31T04:41:42;8.73;;;6.53;;
5967;SDS011;3010;51.028;4.170;2023-07-31T04:44:09;11.97;;;6.90;;
5967;SDS011;3010;51.028;4.170;2023-07-31T04:46:35;6.80;;;6.20;;
5967;SDS011;3010;51.028;4.170;2023-07-31T04:49:02;9.30;;;7.00;;
5967;SDS011;3010;51.028;4.170;2023-07-31T04:51:28;18.27;;;8.30;;
5967;SDS011;3010;51.028;4.170;2023-07-31T04:53:56;10.17;;;6.90;;
5967;SDS011;3010;51.028;4.170;2023-07-31T04:56:21;12.73;;;7.47;;
5967;SDS011;3010;51.028;4.170;2023-07-31T04:58:48;11.53;;;7.20;;
5967;SDS011;3010;51.028;4.170;2023-07-31T05:01:15;10.33;;;6.87;;
5967;SDS011;3010;51.028;4.170;2023-07-31T05:03:41;10.97;;;6.93;;
5967;SDS011;3010;51.028;4.170;2023-07-31T05:06:08;12.90;;;7.90;;
5967;SDS011;3010;51.028;4.170;2023-07-31T05:08:34;9.23;;;7.90;;
5967;SDS011;3010;51.028;4.170;2023-07-31T05:11:02;8.17;;;7.10;;
5967;SDS011;3010;51.028;4.170;2023-07-31T05:13:28;7.90;;;6.77;;
5967;SDS011;3010;51.028;4.170;2023-07-31T05:15:54;13.23;;;7.07;;
5967;SDS011;3010;51.028;4.170;2023-07-31T05:18:21;12.03;;;8.70;;
5967;SDS011;3010;51.028;4.170;2023-07-31T05:20:47;9.97;;;8.03;;
5967;SDS011;3010;51.028;4.170;2023-07-31T05:23:14;13.20;;;7.50;;
5967;SDS011;3010;51.028;4.170;2023-07-31T05:25:41;11.33;;;7.37;;
5967;SDS011;3010;51.028;4.170;2023-07-31T05:28:07;10.43;;;7.63;;
5967;SDS011;3010;51.028;4.170;2023-07-31T05:30:34;11.40;;;8.10;;
5967;SDS011;3010;51.028;4.170;2023-07-31T05:33:00;13.30;;;8.30;;
5967;SDS011;3010;51.028;4.170;2023-07-31T05:35:27;12.93;;;8.67;;
5967;SDS011;3010;51.028;4.170;2023-07-31T05:37:54;12.27;;;8.60;;
5967;SDS011;3010;51.028;4.170;2023-07-31T05:40:20;10.27;;;7.90;;
5967;SDS011;3010;51.028;4.170;2023-07-31T05:42:47;11.87;;;8.40;;
5967;SDS011;3010;51.028;4.170;2023-07-31T05:45:13;11.57;;;8.70;;
5967;SDS011;3010;51.028;4.170;2023-07-31T05:47:40;12.67;;;9.57;;
5967;SDS011;3010;51.028;4.170;2023-07-31T05:50:07;11.77;;;8.90;;
5967;SDS011;3010;51.028;4.170;2023-07-31T05:52:33;10.57;;;8.20;;
5967;SDS011;3010;51.028;4.170;2023-07-31T05:55:00;11.43;;;8.07;;
5967;SDS011;3010;51.028;4.170;2023-07-31T05:57:26;15.83;;;8.17;;
5967;SDS011;3010;51.028;4.170;2023-07-31T05:59:53;12.90;;;8.17;;
5967;SDS011;3010;51.028;4.170;2023-07-31T06:02:20;11.30;;;8.13;;
5967;SDS011;3010;51.028;4.170;2023-07-31T06:04:46;10.27;;;7.27;;
5967;SDS011;3010;51.028;4.170;2023-07-31T06:07:13;10.50;;;7.50;;
5967;SDS011;3010;51.028;4.170;2023-07-31T06:09:39;12.83;;;7.23;;
5967;SDS011;3010;51.028;4.170;2023-07-31T06:12:06;12.63;;;7.03;;
5967;SDS011;3010;51.028;4.170;2023-07-31T06:14:33;12.03;;;8.10;;
5967;SDS011;3010;51.028;4.170;2023-07-31T06:16:59;11.87;;;7.30;;
5967;SDS011;3010;51.028;4.170;2023-07-31T06:19:26;14.90;;;7.20;;
5967;SDS011;3010;51.028;4.170;2023-07-31T06:21:52;14.80;;;6.60;;
5967;SDS011;3010;51.028;4.170;2023-07-31T06:24:19;10.27;;;6.27;;
5967;SDS011;3010;51.028;4.170;2023-07-31T06:26:46;14.83;;;6.70;;
5967;SDS011;3010;51.028;4.170;2023-07-31T06:29:12;8.43;;;6.20;;
5967;SDS011;3010;51.028;4.170;2023-07-31T06:31:40;12.13;;;6.30;;
5967;SDS011;3010;51.028;4.170;2023-07-31T06:34:05;8.17;;;5.83;;
5967;SDS011;3010;51.028;4.170;2023-07-31T06:36:32;10.43;;;6.10;;
5967;SDS011;3010;51.028;4.170;2023-07-31T06:38:59;10.90;;;5.80;;
5967;SDS011;3010;51.028;4.170;2023-07-31T06:41:25;8.43;;;5.70;;
5967;SDS011;3010;51.028;4.170;2023-07-31T06:43:52;9.60;;;6.50;;
5967;SDS011;3010;51.028;4.170;2023-07-31T06:46:18;14.00;;;6.13;;
5967;SDS011;3010;51.028;4.170;2023-07-31T06:48:45;11.30;;;6.17;;
5967;SDS011;3010;51.028;4.170;2023-07-31T06:51:11;10.13;;;6.27;;
5967;SDS011;3010;51.028;4.170;2023-07-31T06:53:38;10.93;;;5.93;;
5967;SDS011;3010;51.028;4.170;2023-07-31T06:56:05;8.63;;;5.87;;
5967;SDS011;3010;51.028;4.170;2023-07-31T06:58:31;7.70;;;5.62;;
5967;SDS011;3010;51.028;4.170;2023-07-31T07:00:58;7.97;;;5.10;;
5967;SDS011;3010;51.028;4.170;2023-07-31T07:03:24;8.67;;;4.93;;
5967;SDS011;3010;51.028;4.170;2023-07-31T07:05:51;6.97;;;4.97;;
5967;SDS011;3010;51.028;4.170;2023-07-31T07:08:18;6.50;;;4.77;;
5967;SDS011;3010;51.028;4.170;2023-07-31T07:10:44;5.90;;;4.73;;
5967;SDS011;3010;51.028;4.170;2023-07-31T07:13:11;5.10;;;4.43;;
5967;SDS011;3010;51.028;4.170;2023-07-31T07:15:37;7.37;;;4.60;;
5967;SDS011;3010;51.028;4.170;2023-07-31T07:18:04;6.00;;;4.57;;
5967;SDS011;3010;51.028;4.170;2023-07-31T07:20:31;8.53;;;5.07;;
5967;SDS011;3010;51.028;4.170;2023-07-31T07:22:57;7.47;;;4.50;;
5967;SDS011;3010;51.028;4.170;2023-07-31T07:25:24;8.23;;;4.97;;
5967;SDS011;3010;51.028;4.170;2023-07-31T07:27:50;8.50;;;5.00;;
5967;SDS011;3010;51.028;4.170;2023-07-31T07:30:17;5.70;;;4.63;;
5967;SDS011;3010;51.028;4.170;2023-07-31T07:32:44;7.93;;;4.57;;
5967;SDS011;3010;51.028;4.170;2023-07-31T07:35:11;7.43;;;4.70;;
5967;SDS011;3010;51.028;4.170;2023-07-31T07:37:37;7.60;;;5.23;;
5967;SDS011;3010;51.028;4.170;2023-07-31T07:40:03;5.37;;;4.60;;
5967;SDS011;3010;51.028;4.170;2023-07-31T07:42:30;9.00;;;5.00;;
5967;SDS011;3010;51.028;4.170;2023-07-31T07:44:57;6.47;;;4.80;;
5967;SDS011;3010;51.028;4.170;2023-07-31T07:47:23;5.77;;;4.90;;
5967;SDS011;3010;51.028;4.170;2023-07-31T07:49:50;5.90;;;4.83;;
5967;SDS011;3010;51.028;4.170;2023-07-31T07:52:16;10.53;;;5.27;;
5967;SDS011;3010;51.028;4.170;2023-07-31T07:54:43;7.05;;;4.78;;
5967;SDS011;3010;51.028;4.170;2023-07-31T07:57:10;9.60;;;4.73;;
5967;SDS011;3010;51.028;4.170;2023-07-31T07:59:36;4.80;;;4.20;;
5967;SDS011;3010;51.028;4.170;2023-07-31T08:02:03;6.27;;;4.93;;
5967;SDS011;3010;51.028;4.170;2023-07-31T08:04:30;7.93;;;4.23;;
5967;SDS011;3010;51.028;4.170;2023-07-31T08:06:56;7.47;;;4.00;;
5967;SDS011;3010;51.028;4.170;2023-07-31T08:09:23;5.70;;;3.77;;
5967;SDS011;3010;51.028;4.170;2023-07-31T08:11:49;5.83;;;3.93;;
5967;SDS011;3010;51.028;4.170;2023-07-31T08:14:16;5.27;;;4.20;;
5967;SDS011;3010;51.028;4.170;2023-07-31T08:16:43;6.53;;;4.10;;
5967;SDS011;3010;51.028;4.170;2023-07-31T08:19:09;4.73;;;4.13;;
5967;SDS011;3010;51.028;4.170;2023-07-31T08:21:36;6.83;;;4.10;;
5967;SDS011;3010;51.028;4.170;2023-07-31T08:24:02;5.23;;;3.83;;
5967;SDS011;3010;51.028;4.170;2023-07-31T08:26:29;6.90;;;4.00;;
5967;SDS011;3010;51.028;4.170;2023-07-31T08:28:55;8.13;;;3.73;;
5967;SDS011;3010;51.028;4.170;2023-07-31T08:31:22;4.90;;;3.93;;
5967;SDS011;3010;51.028;4.170;2023-07-31T08:33:49;9.27;;;4.07;;
5967;SDS011;3010;51.028;4.170;2023-07-31T08:36:15;6.23;;;3.93;;
5967;SDS011;3010;51.028;4.170;2023-07-31T08:38:42;4.87;;;3.80;;
5967;SDS011;3010;51.028;4.170;2023-07-31T08:41:08;4.30;;;3.30;;
5967;SDS011;3010;51.028;4.170;2023-07-31T08:43:35;4.67;;;3.80;;
5967;SDS011;3010;51.028;4.170;2023-07-31T08:46:02;7.23;;;4.00;;
5967;SDS011;3010;51.028;4.170;2023-07-31T08:48:28;6.40;;;3.60;;
5967;SDS011;3010;51.028;4.170;2023-07-31T08:50:55;6.40;;;3.67;;
5967;SDS011;3010;51.028;4.170;2023-07-31T08:53:21;4.20;;;3.80;;
5967;SDS011;3010;51.028;4.170;2023-07-31T08:55:48;3.60;;;3.40;;
5967;SDS011;3010;51.028;4.170;2023-07-31T08:58:15;5.80;;;3.90;;
5967;SDS011;3010;51.028;4.170;2023-07-31T09:00:41;4.37;;;3.90;;
5967;SDS011;3010;51.028;4.170;2023-07-31T09:03:08;4.18;;;3.80;;
5967;SDS011;3010;51.028;4.170;2023-07-31T09:05:35;4.20;;;3.60;;
5967;SDS011;3010;51.028;4.170;2023-07-31T09:08:01;4.17;;;3.83;;
5967;SDS011;3010;51.028;4.170;2023-07-31T09:10:28;3.80;;;3.50;;
5967;SDS011;3010;51.028;4.170;2023-07-31T09:12:54;6.07;;;4.13;;
5967;SDS011;3010;51.028;4.170;2023-07-31T09:15:21;4.43;;;4.03;;
5967;SDS011;3010;51.028;4.170;2023-07-31T09:17:47;7.23;;;3.90;;
5967;SDS011;3010;51.028;4.170;2023-07-31T09:20:17;4.20;;;3.83;;
5967;SDS011;3010;51.028;4.170;2023-07-31T09:22:43;7.07;;;4.40;;
5967;SDS011;3010;51.028;4.170;2023-07-31T09:30:17;4.60;;;4.20;;
5967;SDS011;3010;51.028;4.170;2023-07-31T09:32:44;5.07;;;4.57;;
5967;SDS011;3010;51.028;4.170;2023-07-31T09:35:20;4.70;;;4.30;;
5967;SDS011;3010;51.028;4.170;2023-07-31T09:37:53;5.57;;;4.40;;
5967;SDS011;3010;51.028;4.170;2023-07-31T09:40:25;4.53;;;4.10;;
5967;SDS011;3010;51.028;4.170;2023-07-31T09:42:58;5.03;;;4.63;;
5967;SDS011;3010;51.028;4.170;2023-07-31T09:45:24;5.53;;;4.70;;
5967;SDS011;3010;51.028;4.170;2023-07-31T09:47:50;5.17;;;4.67;;
5967;SDS011;3010;51.028;4.170;2023-07-31T09:50:17;6.32;;;4.87;;
5967;SDS011;3010;51.028;4.170;2023-07-31T09:52:44;7.57;;;4.67;;
5967;SDS011;3010;51.028;4.170;2023-07-31T09:55:10;5.37;;;4.65;;
5967;SDS011;3010;51.028;4.170;2023-07-31T09:57:41;7.20;;;4.80;;
5967;SDS011;3010;51.028;4.170;2023-07-31T10:00:06;6.60;;;4.20;;
5967;SDS011;3010;51.028;4.170;2023-07-31T10:02:33;5.10;;;4.57;;
5967;SDS011;3010;51.028;4.170;2023-07-31T10:05:00;5.87;;;4.03;;
5967;SDS011;3010;51.028;4.170;2023-07-31T10:07:26;4.77;;;4.37;;
5967;SDS011;3010;51.028;4.170;2023-07-31T10:09:53;6.57;;;5.03;;
5967;SDS011;3010;51.028;4.170;2023-07-31T10:12:19;7.07;;;5.67;;
5967;SDS011;3010;51.028;4.170;2023-07-31T10:14:47;6.67;;;4.57;;
5967;SDS011;3010;51.028;4.170;2023-07-31T10:17:13;10.07;;;6.07;;
5967;SDS011;3010;51.028;4.170;2023-07-31T10:19:40;5.70;;;5.20;;
5967;SDS011;3010;51.028;4.170;2023-07-31T10:22:07;6.53;;;5.93;;
5967;SDS011;3010;51.028;4.170;2023-07-31T10:24:33;6.10;;;5.57;;
5967;SDS011;3010;51.028;4.170;2023-07-31T10:27:00;7.60;;;5.00;;
5967;SDS011;3010;51.028;4.170;2023-07-31T10:29:26;8.07;;;5.53;;
5967;SDS011;3010;51.028;4.170;2023-07-31T10:31:53;9.30;;;5.43;;
5967;SDS011;3010;51.028;4.170;2023-07-31T10:34:20;9.13;;;5.90;;
5967;SDS011;3010;51.028;4.170;2023-07-31T10:36:46;9.77;;;5.57;;
5967;SDS011;3010;51.028;4.170;2023-07-31T10:42:13;6.10;;;5.40;;
5967;SDS011;3010;51.028;4.170;2023-07-31T10:44:46;8.20;;;5.67;;
5967;SDS011;3010;51.028;4.170;2023-07-31T10:47:15;8.00;;;5.50;;
5967;SDS011;3010;51.028;4.170;2023-07-31T10:49:44;7.60;;;5.70;;
5967;SDS011;3010;51.028;4.170;2023-07-31T10:52:10;9.70;;;6.07;;
5967;SDS011;3010;51.028;4.170;2023-07-31T10:54:35;7.07;;;6.20;;
5967;SDS011;3010;51.028;4.170;2023-07-31T10:57:01;8.73;;;6.65;;
5967;SDS011;3010;51.028;4.170;2023-07-31T10:59:28;10.33;;;5.97;;
5967;SDS011;3010;51.028;4.170;2023-07-31T11:01:55;10.07;;;6.03;;
5967;SDS011;3010;51.028;4.170;2023-07-31T11:04:24;7.80;;;5.77;;
5967;SDS011;3010;51.028;4.170;2023-07-31T11:09:24;6.43;;;5.83;;
5967;SDS011;3010;51.028;4.170;2023-07-31T11:11:50;7.87;;;6.40;;
5967;SDS011;3010;51.028;4.170;2023-07-31T11:14:16;8.90;;;6.10;;
5967;SDS011;3010;51.028;4.170;2023-07-31T11:16:43;11.90;;;6.47;;
5967;SDS011;3010;51.028;4.170;2023-07-31T11:19:09;8.37;;;5.80;;
5967;SDS011;3010;51.028;4.170;2023-07-31T11:21:36;12.10;;;6.10;;
5967;SDS011;3010;51.028;4.170;2023-07-31T11:24:03;7.33;;;5.80;;
5967;SDS011;3010;51.028;4.170;2023-07-31T11:26:29;7.07;;;6.33;;
5967;SDS011;3010;51.028;4.170;2023-07-31T11:28:56;7.47;;;6.50;;
5967;SDS011;3010;51.028;4.170;2023-07-31T11:31:22;13.10;;;6.37;;
5967;SDS011;3010;51.028;4.170;2023-07-31T11:33:49;8.03;;;5.93;;
5967;SDS011;3010;51.028;4.170;2023-07-31T11:36:16;8.27;;;6.03;;
5967;SDS011;3010;51.028;4.170;2023-07-31T11:38:42;8.70;;;6.07;;
5967;SDS011;3010;51.028;4.170;2023-07-31T11:41:09;7.60;;;6.50;;
5967;SDS011;3010;51.028;4.170;2023-07-31T11:43:35;8.03;;;5.53;;
5967;SDS011;3010;51.028;4.170;2023-07-31T11:46:02;12.00;;;8.15;;
5967;SDS011;3010;51.028;4.170;2023-07-31T11:48:30;7.33;;;6.10;;
5967;SDS011;3010;51.028;4.170;2023-07-31T11:50:58;9.23;;;6.13;;
5967;SDS011;3010;51.028;4.170;2023-07-31T11:55:57;8.30;;;6.78;;
5967;SDS011;3010;51.028;4.170;2023-07-31T11:58:24;9.30;;;6.53;;
5967;SDS011;3010;51.028;4.170;2023-07-31T12:00:51;10.63;;;5.70;;
5967;SDS011;3010;51.028;4.170;2023-07-31T12:03:17;9.40;;;5.60;;
5967;SDS011;3010;51.028;4.170;2023-07-31T12:05:43;6.10;;;4.93;;
5967;SDS011;3010;51.028;4.170;2023-07-31T12:08:10;6.30;;;5.17;;
5967;SDS011;3010;51.028;4.170;2023-07-31T12:10:37;9.10;;;5.30;;
5967;SDS011;3010;51.028;4.170;2023-07-31T12:13:04;8.17;;;4.73;;
5967;SDS011;3010;51.028;4.170;2023-07-31T12:15:31;7.77;;;4.77;;
5967;SDS011;3010;51.028;4.170;2023-07-31T12:17:56;7.50;;;4.87;;
5967;SDS011;3010;51.028;4.170;2023-07-31T12:20:23;7.90;;;4.87;;
5967;SDS011;3010;51.028;4.170;2023-07-31T12:22:49;8.37;;;4.63;;
5967;SDS011;3010;51.028;4.170;2023-07-31T12:25:16;8.90;;;5.00;;
5967;SDS011;3010;51.028;4.170;2023-07-31T12:27:45;9.03;;;4.07;;
5967;SDS011;3010;51.028;4.170;2023-07-31T12:30:28;8.90;;;4.50;;
5967;SDS011;3010;51.028;4.170;2023-07-31T12:32:54;5.80;;;4.70;;
5967;SDS011;3010;51.028;4.170;2023-07-31T12:35:20;4.63;;;4.23;;
5967;SDS011;3010;51.028;4.170;2023-07-31T12:37:47;7.53;;;4.53;;
5967;SDS011;3010;51.028;4.170;2023-07-31T12:40:14;9.73;;;5.20;;
5967;SDS011;3010;51.028;4.170;2023-07-31T12:42:41;6.23;;;4.73;;
5967;SDS011;3010;51.028;4.170;2023-07-31T12:45:07;8.60;;;5.35;;
5967;SDS011;3010;51.028;4.170;2023-07-31T12:47:33;5.43;;;4.53;;
5967;SDS011;3010;51.028;4.170;2023-07-31T12:50:00;5.20;;;4.70;;
5967;SDS011;3010;51.028;4.170;2023-07-31T12:52:27;5.23;;;4.70;;
5967;SDS011;3010;51.028;4.170;2023-07-31T12:54:53;7.17;;;5.07;;
5967;SDS011;3010;51.028;4.170;2023-07-31T12:57:20;6.20;;;4.47;;
5967;SDS011;3010;51.028;4.170;2023-07-31T12:59:46;9.88;;;6.07;;
5967;SDS011;3010;51.028;4.170;2023-07-31T13:02:13;7.33;;;4.70;;
5967;SDS011;3010;51.028;4.170;2023-07-31T13:04:39;6.53;;;5.32;;
5967;SDS011;3010;51.028;4.170;2023-07-31T13:07:06;5.73;;;4.97;;
5967;SDS011;3010;51.028;4.170;2023-07-31T13:09:33;5.10;;;4.30;;
5967;SDS011;3010;51.028;4.170;2023-07-31T13:11:59;9.67;;;4.60;;
5967;SDS011;3010;51.028;4.170;2023-07-31T13:14:26;6.03;;;3.90;;
5967;SDS011;3010;51.028;4.170;2023-07-31T13:16:52;4.70;;;3.80;;
5967;SDS011;3010;51.028;4.170;2023-07-31T13:19:19;3.83;;;3.47;;
5967;SDS011;3010;51.028;4.170;2023-07-31T13:21:46;3.97;;;3.60;;
5967;SDS011;3010;51.028;4.170;2023-07-31T13:24:12;5.37;;;3.20;;
5967;SDS011;3010;51.028;4.170;2023-07-31T13:26:39;5.30;;;3.67;;
5967;SDS011;3010;51.028;4.170;2023-07-31T13:29:05;3.57;;;3.33;;
5967;SDS011;3010;51.028;4.170;2023-07-31T13:31:32;5.57;;;3.03;;
5967;SDS011;3010;51.028;4.170;2023-07-31T13:33:59;4.00;;;3.60;;
5967;SDS011;3010;51.028;4.170;2023-07-31T13:36:25;4.87;;;4.43;;
5967;SDS011;3010;51.028;4.170;2023-07-31T13:38:52;5.07;;;3.63;;
5967;SDS011;3010;51.028;4.170;2023-07-31T13:41:18;5.73;;;3.33;;
5967;SDS011;3010;51.028;4.170;2023-07-31T13:43:45;3.40;;;3.20;;
5967;SDS011;3010;51.028;4.170;2023-07-31T13:46:12;3.13;;;3.03;;
5967;SDS011;3010;51.028;4.170;2023-07-31T13:48:38;3.50;;;3.20;;
5967;SDS011;3010;51.028;4.170;2023-07-31T13:51:05;3.40;;;3.10;;
5967;SDS011;3010;51.028;4.170;2023-07-31T13:53:31;4.07;;;3.00;;
5967;SDS011;3010;51.028;4.170;2023-07-31T13:55:58;3.80;;;2.60;;
5967;SDS011;3010;51.028;4.170;2023-07-31T13:58:24;3.20;;;3.00;;
5967;SDS011;3010;51.028;4.170;2023-07-31T14:00:51;2.77;;;2.60;;
5967;SDS011;3010;51.028;4.170;2023-07-31T14:03:18;3.30;;;2.70;;
5967;SDS011;3010;51.028;4.170;2023-07-31T14:05:44;6.97;;;3.03;;
5967;SDS011;3010;51.028;4.170;2023-07-31T14:08:11;3.90;;;3.60;;
5967;SDS011;3010;51.028;4.170;2023-07-31T14:10:37;3.47;;;3.27;;
5967;SDS011;3010;51.028;4.170;2023-07-31T14:13:04;7.50;;;3.40;;
5967;SDS011;3010;51.028;4.170;2023-07-31T14:15:31;5.15;;;4.43;;
5967;SDS011;3010;51.028;4.170;2023-07-31T14:17:57;4.97;;;3.90;;
5967;SDS011;3010;51.028;4.170;2023-07-31T14:20:24;6.07;;;4.27;;
5967;SDS011;3010;51.028;4.170;2023-07-31T14:22:50;6.07;;;4.60;;
5967;SDS011;3010;51.028;4.170;2023-07-31T14:25:17;4.77;;;4.23;;
5967;SDS011;3010;51.028;4.170;2023-07-31T14:27:44;4.90;;;4.17;;
5967;SDS011;3010;51.028;4.170;2023-07-31T14:30:10;5.63;;;4.33;;
5967;SDS011;3010;51.028;4.170;2023-07-31T14:32:37;5.25;;;4.75;;
5967;SDS011;3010;51.028;4.170;2023-07-31T14:35:03;5.97;;;4.27;;
5967;SDS011;3010;51.028;4.170;2023-07-31T14:37:39;6.70;;;4.50;;
5967;SDS011;3010;51.028;4.170;2023-07-31T14:40:02;7.23;;;4.00;;
5967;SDS011;3010;51.028;4.170;2023-07-31T14:42:29;7.30;;;4.30;;
5967;SDS011;3010;51.028;4.170;2023-07-31T14:44:56;7.27;;;4.80;;
5967;SDS011;3010;51.028;4.170;2023-07-31T14:47:22;4.67;;;3.80;;
5967;SDS011;3010;51.028;4.170;2023-07-31T14:49:49;3.60;;;3.30;;
5967;SDS011;3010;51.028;4.170;2023-07-31T14:52:15;3.97;;;3.60;;
5967;SDS011;3010;51.028;4.170;2023-07-31T14:54:42;6.50;;;3.83;;
5967;SDS011;3010;51.028;4.170;2023-07-31T14:57:09;4.73;;;3.60;;
5967;SDS011;3010;51.028;4.170;2023-07-31T14:59:35;3.67;;;3.37;;
5967;SDS011;3010;51.028;4.170;2023-07-31T15:02:02;3.87;;;3.57;;
5967;SDS011;3010;51.028;4.170;2023-07-31T15:04:29;3.97;;;3.30;;
5967;SDS011;3010;51.028;4.170;2023-07-31T15:06:55;3.30;;;3.10;;
5967;SDS011;3010;51.028;4.170;2023-07-31T15:09:22;4.83;;;3.80;;
5967;SDS011;3010;51.028;4.170;2023-07-31T15:11:48;4.77;;;3.03;;
5967;SDS011;3010;51.028;4.170;2023-07-31T15:14:15;3.95;;;3.60;;
5967;SDS011;3010;51.028;4.170;2023-07-31T15:16:41;2.90;;;2.70;;
5967;SDS011;3010;51.028;4.170;2023-07-31T15:19:08;6.10;;;3.50;;
5967;SDS011;3010;51.028;4.170;2023-07-31T15:21:35;5.00;;;2.47;;
5967;SDS011;3010;51.028;4.170;2023-07-31T15:24:01;2.87;;;2.67;;